Time;durP1;ratioP1;P1;durP2;ratioP2;P2;SDS_P1;SDS_P2;PMS_P1;PMS_P2;Temp;Humidity;BMP_temperature;BMP_pressure;BME280_temperature;BME280_humidity;BME280_pressure;Samples;Min_cycle;Max_cycle;Signal;HPM_P1;HPM_P2
2021/05/16 00:01:45;;;;;;;5.45;2.25;;;;;;;;;;5016474;28;20790;-42
2021/05/16 00:04:11;;;;;;;2.65;1.60;;;;;;;;;;5021270;28;20033;-42
2021/05/16 00:06:36;;;;;;;2.88;2.00;;;;;;;;;;5020314;28;20084;-43
2021/05/16 00:09:01;;;;;;;8.07;2.00;;;;;;;;;;5015188;28;20812;-43
2021/05/16 00:11:27;;;;;;;5.13;3.00;;;;;;;;;;5014807;28;20038;-42
2021/05/16 00:13:53;;;;;;;5.30;2.88;;;;;;;;;;5017826;28;20406;-42
2021/05/16 00:16:18;;;;;;;3.53;2.30;;;;;;;;;;5018662;28;20499;-42
2021/05/16 00:18:43;;;;;;;6.70;2.65;;;;;;;;;;5019360;28;20085;-42
2021/05/16 00:21:09;;;;;;;3.50;1.60;;;;;;;;;;5018046;28;20029;-42
2021/05/16 00:23:34;;;;;;;3.08;1.45;;;;;;;;;;5014675;28;20506;-42
2021/05/16 00:25:59;;;;;;;8.68;1.75;;;;;;;;;;5013486;28;20042;-42
2021/05/16 00:28:25;;;;;;;4.53;1.85;;;;;;;;;;5017324;28;20021;-42
2021/05/16 00:30:51;;;;;;;3.25;1.50;;;;;;;;;;5017145;28;20037;-44
2021/05/16 00:33:17;;;;;;;5.00;1.02;;;;;;;;;;5014646;28;20762;-42
2021/05/16 00:35:42;;;;;;;6.68;2.55;;;;;;;;;;5017847;28;20137;-42
2021/05/16 00:38:08;;;;;;;2.35;1.27;;;;;;;;;;5019368;28;20387;-42
2021/05/16 00:40:34;;;;;;;2.38;1.30;;;;;;;;;;5018727;28;20038;-42
2021/05/16 00:42:59;;;;;;;2.17;0.98;;;;;;;;;;5017200;28;20025;-42
2021/05/16 00:45:25;;;;;;;2.08;1.38;;;;;;;;;;5018695;28;20029;-42
2021/05/16 00:47:52;;;;;;;1.40;0.65;;;;;;;;;;5019061;28;20041;-42
2021/05/16 00:50:18;;;;;;;1.13;0.77;;;;;;;;;;5018640;28;20028;-42
2021/05/16 00:52:43;;;;;;;2.67;1.27;;;;;;;;;;5021037;28;20513;-42
2021/05/16 00:55:10;;;;;;;3.50;1.58;;;;;;;;;;5018426;28;20025;-42
2021/05/16 00:57:35;;;;;;;1.13;0.75;;;;;;;;;;5025821;28;20030;-42
2021/05/16 01:00:00;;;;;;;0.77;0.60;;;;;;;;;;5019895;28;20577;-42
2021/05/16 01:02:26;;;;;;;2.67;1.35;;;;;;;;;;5020521;28;20061;-42
2021/05/16 01:04:51;;;;;;;1.88;0.93;;;;;;;;;;5020711;28;20057;-42
2021/05/16 01:07:17;;;;;;;8.10;2.30;;;;;;;;;;5020945;28;20029;-43
2021/05/16 01:09:43;;;;;;;3.92;1.80;;;;;;;;;;5017560;28;20081;-42
2021/05/16 01:12:08;;;;;;;2.50;1.42;;;;;;;;;;5023109;28;20030;-42
2021/05/16 01:14:37;;;;;;;2.22;1.63;;;;;;;;;;5018267;28;20037;-42
2021/05/16 01:17:03;;;;;;;6.68;1.33;;;;;;;;;;5019109;28;20509;-43
2021/05/16 01:19:32;;;;;;;1.90;1.38;;;;;;;;;;5017399;28;20026;-42
2021/05/16 01:21:57;;;;;;;1.75;1.15;;;;;;;;;;5018731;28;20139;-42
2021/05/16 01:24:25;;;;;;;7.13;2.05;;;;;;;;;;5018444;28;20088;-42
2021/05/16 01:26:51;;;;;;;1.77;1.20;;;;;;;;;;5022019;28;20030;-42
2021/05/16 01:29:17;;;;;;;4.00;1.58;;;;;;;;;;5018533;28;20491;-42
2021/05/16 01:31:42;;;;;;;3.50;2.22;;;;;;;;;;5019241;28;20064;-42
2021/05/16 01:34:08;;;;;;;3.78;1.27;;;;;;;;;;5021186;28;20029;-42
2021/05/16 01:36:33;;;;;;;2.30;1.02;;;;;;;;;;5017995;28;20034;-42
2021/05/16 01:38:59;;;;;;;2.92;1.65;;;;;;;;;;5018346;28;20399;-42
2021/05/16 01:41:24;;;;;;;2.05;1.10;;;;;;;;;;5014874;28;20041;-42
2021/05/16 01:43:51;;;;;;;2.35;1.15;;;;;;;;;;5019578;28;20026;-42
2021/05/16 01:46:16;;;;;;;4.32;0.80;;;;;;;;;;5021250;28;20133;-42
2021/05/16 01:48:42;;;;;;;1.33;0.85;;;;;;;;;;5021252;28;20762;-41
2021/05/16 01:51:07;;;;;;;1.75;0.68;;;;;;;;;;5021452;28;20029;-42
2021/05/16 01:53:34;;;;;;;1.55;0.95;;;;;;;;;;5017358;28;20038;-42
2021/05/16 01:55:59;;;;;;;2.95;1.65;;;;;;;;;;5023224;28;20034;-42
2021/05/16 01:58:25;;;;;;;1.42;0.88;;;;;;;;;;5019279;28;20544;-42
2021/05/16 02:00:51;;;;;;;1.92;1.02;;;;;;;;;;5022208;28;20109;-42
2021/05/16 02:03:16;;;;;;;2.03;1.00;;;;;;;;;;5022187;28;20032;-42
2021/05/16 02:05:42;;;;;;;1.17;0.63;;;;;;;;;;5024364;28;20191;-42
2021/05/16 02:08:07;;;;;;;6.18;0.90;;;;;;;;;;5018036;28;20690;-42
2021/05/16 02:10:33;;;;;;;1.80;1.00;;;;;;;;;;5021125;28;20096;-42
2021/05/16 02:12:58;;;;;;;2.78;1.02;;;;;;;;;;5018382;28;20030;-42
2021/05/16 02:15:23;;;;;;;3.40;1.52;;;;;;;;;;5024262;28;20041;-42
2021/05/16 02:17:53;;;;;;;2.35;1.00;;;;;;;;;;5022431;28;20021;-42
2021/05/16 02:20:19;;;;;;;5.80;1.90;;;;;;;;;;5018824;28;20105;-42
2021/05/16 02:22:44;;;;;;;2.20;1.35;;;;;;;;;;5017677;28;20025;-42
2021/05/16 02:25:10;;;;;;;2.15;1.13;;;;;;;;;;5019136;28;20108;-42
2021/05/16 02:27:36;;;;;;;2.90;1.02;;;;;;;;;;5020074;28;20029;-42
2021/05/16 02:30:03;;;;;;;2.03;1.42;;;;;;;;;;5019616;28;20411;-42
2021/05/16 02:32:28;;;;;;;1.15;0.70;;;;;;;;;;5018493;28;20135;-42
2021/05/16 02:34:53;;;;;;;5.45;1.33;;;;;;;;;;5022027;28;20475;-42
2021/05/16 02:37:19;;;;;;;2.78;1.40;;;;;;;;;;5021224;28;20041;-42
2021/05/16 02:39:44;;;;;;;1.90;0.65;;;;;;;;;;5018902;28;20032;-42
2021/05/16 02:42:10;;;;;;;5.07;1.23;;;;;;;;;;5018962;28;20030;-42
2021/05/16 02:44:35;;;;;;;1.55;0.93;;;;;;;;;;5020015;28;20030;-42
2021/05/16 02:47:02;;;;;;;0.95;0.60;;;;;;;;;;5003670;28;20029;-42
2021/05/16 02:49:27;;;;;;;3.72;1.13;;;;;;;;;;5018896;28;20045;-42
2021/05/16 02:51:52;;;;;;;11.40;1.40;;;;;;;;;;5018603;28;20045;-42
2021/05/16 02:54:18;;;;;;;1.65;0.75;;;;;;;;;;5018132;28;20041;-42
2021/05/16 02:56:43;;;;;;;0.90;0.50;;;;;;;;;;5019881;28;20428;-42
2021/05/16 02:59:08;;;;;;;2.38;0.93;;;;;;;;;;5016961;28;20041;-43
2021/05/16 03:01:34;;;;;;;5.22;1.65;;;;;;;;;;5018979;28;20447;-42
2021/05/16 03:04:00;;;;;;;1.10;0.65;;;;;;;;;;5021504;28;20025;-42
2021/05/16 03:06:26;;;;;;;0.47;0.40;;;;;;;;;;5020072;28;20030;-42
2021/05/16 03:08:51;;;;;;;1.75;1.05;;;;;;;;;;5016192;28;20526;-42
2021/05/16 03:11:17;;;;;;;1.58;1.25;;;;;;;;;;5017205;28;20375;-42
2021/05/16 03:13:42;;;;;;;2.10;1.15;;;;;;;;;;5019129;28;20038;-42
2021/05/16 03:16:07;;;;;;;1.83;0.95;;;;;;;;;;5025099;28;20032;-42
2021/05/16 03:18:33;;;;;;;3.92;1.25;;;;;;;;;;5019995;28;20091;-43
2021/05/16 03:20:58;;;;;;;1.40;0.73;;;;;;;;;;5020437;28;20498;-43
2021/05/16 03:23:24;;;;;;;1.02;0.60;;;;;;;;;;5018695;28;20038;-43
2021/05/16 03:25:49;;;;;;;5.90;1.10;;;;;;;;;;5021269;28;20037;-43
2021/05/16 03:28:14;;;;;;;2.72;0.82;;;;;;;;;;5019436;28;20018;-43
2021/05/16 03:30:40;;;;;;;7.57;1.55;;;;;;;;;;5019755;28;20060;-43
2021/05/16 03:33:05;;;;;;;1.98;0.82;;;;;;;;;;5023557;28;20021;-43
2021/05/16 03:35:31;;;;;;;1.13;0.93;;;;;;;;;;5017775;28;20202;-43
2021/05/16 03:37:56;;;;;;;1.98;1.15;;;;;;;;;;5020965;28;20057;-42
2021/05/16 03:40:22;;;;;;;1.48;0.80;;;;;;;;;;5018849;28;20037;-43
2021/05/16 03:42:47;;;;;;;0.93;0.60;;;;;;;;;;5016584;28;20033;-43
2021/05/16 03:45:13;;;;;;;4.30;1.42;;;;;;;;;;5022175;28;20092;-43
2021/05/16 03:47:38;;;;;;;5.43;1.30;;;;;;;;;;5019158;28;20084;-43
2021/05/16 03:50:04;;;;;;;1.50;0.90;;;;;;;;;;5017135;28;20095;-43
2021/05/16 03:52:30;;;;;;;9.13;1.33;;;;;;;;;;5017604;28;20033;-43
2021/05/16 03:54:56;;;;;;;1.10;0.60;;;;;;;;;;5017312;28;20025;-43
2021/05/16 03:57:24;;;;;;;2.13;1.05;;;;;;;;;;5020673;28;20040;-43
2021/05/16 03:59:50;;;;;;;1.92;0.80;;;;;;;;;;5015960;28;20184;-43
2021/05/16 04:02:15;;;;;;;1.90;1.10;;;;;;;;;;5018291;28;20557;-43
2021/05/16 04:04:41;;;;;;;5.97;0.60;;;;;;;;;;5019296;28;20025;-43
2021/05/16 04:07:06;;;;;;;2.33;1.05;;;;;;;;;;5021100;28;20073;-43
2021/05/16 04:09:32;;;;;;;3.13;1.50;;;;;;;;;;5017226;28;20030;-43
2021/05/16 04:11:57;;;;;;;3.97;0.95;;;;;;;;;;5015741;28;20033;-43
2021/05/16 04:14:24;;;;;;;6.10;1.33;;;;;;;;;;5017877;28;20066;-42
2021/05/16 04:16:49;;;;;;;10.35;1.75;;;;;;;;;;5020006;28;20116;-43
2021/05/16 04:19:14;;;;;;;8.45;1.58;;;;;;;;;;5016317;28;20391;-43
2021/05/16 04:21:40;;;;;;;2.78;1.15;;;;;;;;;;5020301;28;20037;-43
2021/05/16 04:24:05;;;;;;;1.10;0.75;;;;;;;;;;5017979;28;20029;-43
2021/05/16 04:26:31;;;;;;;7.88;0.85;;;;;;;;;;5015728;28;20040;-43
2021/05/16 04:28:56;;;;;;;4.45;0.98;;;;;;;;;;5018548;28;20033;-43
2021/05/16 04:31:21;;;;;;;6.22;1.48;;;;;;;;;;5021242;28;20034;-43
2021/05/16 04:33:47;;;;;;;0.98;0.63;;;;;;;;;;5022702;28;20033;-43
2021/05/16 04:36:12;;;;;;;12.38;1.17;;;;;;;;;;5023582;28;20029;-42
2021/05/16 04:38:37;;;;;;;4.90;1.13;;;;;;;;;;5021877;28;20041;-43
2021/05/16 04:41:03;;;;;;;1.55;0.70;;;;;;;;;;5025322;28;20644;-42
2021/05/16 04:43:28;;;;;;;1.83;0.93;;;;;;;;;;5022882;28;20026;-43
2021/05/16 04:45:53;;;;;;;1.75;1.20;;;;;;;;;;5006144;28;20503;-42
2021/05/16 04:48:19;;;;;;;2.83;0.80;;;;;;;;;;5019213;28;20033;-42
2021/05/16 04:50:44;;;;;;;1.25;0.80;;;;;;;;;;5022678;28;20402;-43
2021/05/16 04:53:10;;;;;;;3.55;1.77;;;;;;;;;;5022669;28;20145;-43
2021/05/16 04:55:35;;;;;;;1.23;0.82;;;;;;;;;;5022721;28;20026;-43
2021/05/16 04:58:00;;;;;;;11.73;2.03;;;;;;;;;;5019867;28;20437;-43
2021/05/16 05:00:26;;;;;;;4.03;0.85;;;;;;;;;;5024628;28;20041;-43
2021/05/16 05:02:51;;;;;;;3.42;1.15;;;;;;;;;;5022207;28;20045;-43
2021/05/16 05:05:16;;;;;;;5.55;1.38;;;;;;;;;;5016983;28;20048;-43
2021/05/16 05:07:42;;;;;;;6.22;2.25;;;;;;;;;;5017128;28;20049;-43
2021/05/16 05:10:08;;;;;;;3.60;1.13;;;;;;;;;;5018944;28;20033;-43
2021/05/16 05:12:33;;;;;;;4.15;1.95;;;;;;;;;;5020425;28;20414;-43
2021/05/16 05:14:59;;;;;;;4.40;1.45;;;;;;;;;;5020196;28;20105;-43
2021/05/16 05:17:24;;;;;;;2.75;1.38;;;;;;;;;;5020585;28;20360;-43
2021/05/16 05:19:49;;;;;;;2.78;1.52;;;;;;;;;;5022314;28;20033;-43
2021/05/16 05:22:15;;;;;;;6.13;3.25;;;;;;;;;;5020581;28;20036;-43
2021/05/16 05:24:40;;;;;;;2.30;1.48;;;;;;;;;;5020865;28;20056;-43
2021/05/16 05:27:05;;;;;;;4.15;1.88;;;;;;;;;;5020077;28;20068;-42
2021/05/16 05:29:30;;;;;;;2.70;1.38;;;;;;;;;;5022420;28;20498;-43
2021/05/16 05:31:56;;;;;;;3.00;1.88;;;;;;;;;;5016549;28;20700;-42
2021/05/16 05:34:24;;;;;;;7.82;1.95;;;;;;;;;;5018759;28;20466;-43
2021/05/16 05:36:50;;;;;;;2.75;1.92;;;;;;;;;;5020239;28;20034;-43
2021/05/16 05:39:15;;;;;;;4.85;1.92;;;;;;;;;;5023701;28;20041;-43
2021/05/16 05:41:43;;;;;;;5.90;4.25;;;;;;;;;;5019951;28;20029;-43
2021/05/16 05:44:08;;;;;;;9.55;3.10;;;;;;;;;;5019799;28;20092;-43
2021/05/16 05:46:34;;;;;;;5.38;3.55;;;;;;;;;;5016608;28;20108;-43
2021/05/16 05:48:59;;;;;;;9.77;3.13;;;;;;;;;;5022210;28;20411;-43
2021/05/16 05:51:24;;;;;;;13.52;5.22;;;;;;;;;;5021653;28;20036;-43
2021/05/16 05:53:49;;;;;;;6.88;3.60;;;;;;;;;;5021100;28;20125;-42
2021/05/16 05:56:15;;;;;;;15.10;4.00;;;;;;;;;;5023071;28;20041;-42
2021/05/16 05:58:41;;;;;;;8.40;3.15;;;;;;;;;;5017769;28;20173;-42
2021/05/16 06:01:06;;;;;;;4.80;2.38;;;;;;;;;;5019275;28;20072;-43
2021/05/16 06:03:31;;;;;;;7.15;3.17;;;;;;;;;;5017484;28;20038;-43
2021/05/16 06:05:57;;;;;;;7.93;3.42;;;;;;;;;;5020819;28;20026;-43
2021/05/16 06:08:22;;;;;;;7.95;3.30;;;;;;;;;;5018916;28;20026;-42
2021/05/16 06:10:48;;;;;;;3.85;2.75;;;;;;;;;;5017544;28;20037;-43
2021/05/16 06:13:13;;;;;;;9.38;2.80;;;;;;;;;;5018171;28;20490;-43
2021/05/16 06:15:39;;;;;;;9.88;6.85;;;;;;;;;;5025316;28;20040;-43
2021/05/16 06:18:04;;;;;;;6.97;5.90;;;;;;;;;;5019000;28;20034;-43
2021/05/16 06:20:29;;;;;;;6.32;4.82;;;;;;;;;;5018606;28;20065;-44
2021/05/16 06:22:55;;;;;;;5.40;4.80;;;;;;;;;;5020185;28;20752;-44
2021/05/16 06:25:20;;;;;;;13.88;8.15;;;;;;;;;;5021770;28;20049;-44
2021/05/16 06:27:45;;;;;;;9.73;6.78;;;;;;;;;;5018174;28;20036;-44
2021/05/16 06:30:11;;;;;;;7.38;5.57;;;;;;;;;;5020142;28;20374;-43
2021/05/16 06:32:38;;;;;;;10.05;6.40;;;;;;;;;;5021369;28;20109;-42
2021/05/16 06:35:03;;;;;;;7.25;4.45;;;;;;;;;;5018668;28;20044;-43
2021/05/16 06:37:29;;;;;;;8.60;4.15;;;;;;;;;;5020878;28;20038;-42
2021/05/16 06:39:54;;;;;;;15.68;6.00;;;;;;;;;;5017419;28;20056;-44
2021/05/16 06:42:21;;;;;;;19.70;8.23;;;;;;;;;;5018950;28;20515;-43
2021/05/16 06:44:46;;;;;;;15.15;9.40;;;;;;;;;;5019351;28;20041;-43
2021/05/16 06:47:12;;;;;;;21.10;10.93;;;;;;;;;;5016811;28;20018;-43
2021/05/16 06:49:37;;;;;;;12.40;11.25;;;;;;;;;;5021276;28;20026;-43
2021/05/16 06:52:02;;;;;;;14.45;13.00;;;;;;;;;;5023328;28;20042;-43
2021/05/16 06:54:28;;;;;;;15.07;11.98;;;;;;;;;;5018991;28;20591;-43
2021/05/16 06:56:53;;;;;;;16.65;10.15;;;;;;;;;;5020434;28;20033;-43
2021/05/16 06:59:18;;;;;;;11.75;9.18;;;;;;;;;;5018718;28;20038;-43
2021/05/16 07:01:44;;;;;;;16.02;8.90;;;;;;;;;;5020165;28;20042;-43
2021/05/16 07:04:11;;;;;;;10.15;8.57;;;;;;;;;;5019199;28;20053;-43
2021/05/16 07:06:36;;;;;;;11.95;9.07;;;;;;;;;;5015896;28;20108;-43
2021/05/16 07:09:02;;;;;;;17.58;9.20;;;;;;;;;;5020687;28;20112;-43
2021/05/16 07:11:27;;;;;;;12.55;8.82;;;;;;;;;;5018238;28;20529;-43
2021/05/16 07:13:53;;;;;;;9.18;6.50;;;;;;;;;;5017147;28;20034;-43
2021/05/16 07:16:18;;;;;;;17.50;7.38;;;;;;;;;;5020762;28;20040;-43
2021/05/16 07:18:44;;;;;;;6.95;6.07;;;;;;;;;;5018674;28;20040;-43
2021/05/16 07:21:10;;;;;;;4.65;3.28;;;;;;;;;;5014441;28;20030;-43
2021/05/16 07:23:35;;;;;;;12.23;5.75;;;;;;;;;;5021798;28;20029;-43
2021/05/16 07:26:00;;;;;;;9.93;6.00;;;;;;;;;;5017872;28;20054;-43
2021/05/16 07:28:26;;;;;;;14.80;7.50;;;;;;;;;;5016903;28;20042;-43
2021/05/16 07:30:51;;;;;;;8.95;3.95;;;;;;;;;;5016764;28;20030;-43
2021/05/16 07:33:16;;;;;;;6.22;3.33;;;;;;;;;;5014626;28;20037;-43
2021/05/16 07:35:42;;;;;;;6.18;3.60;;;;;;;;;;5017363;28;20574;-43
2021/05/16 07:38:07;;;;;;;8.80;2.50;;;;;;;;;;5018362;28;20530;-42
2021/05/16 07:40:33;;;;;;;5.22;3.10;;;;;;;;;;5021568;28;20376;-43
2021/05/16 07:42:58;;;;;;;2.95;1.45;;;;;;;;;;5020467;28;20026;-42
2021/05/16 07:45:24;;;;;;;4.72;2.47;;;;;;;;;;5020724;28;20025;-42
2021/05/16 07:47:49;;;;;;;2.80;1.75;;;;;;;;;;5017815;28;20418;-42
2021/05/16 07:50:14;;;;;;;6.93;2.97;;;;;;;;;;5017915;28;20109;-42
2021/05/16 07:52:40;;;;;;;4.80;3.95;;;;;;;;;;5015910;28;20068;-44
2021/05/16 07:55:06;;;;;;;9.10;4.53;;;;;;;;;;5018390;28;20475;-42
2021/05/16 07:57:31;;;;;;;8.15;4.15;;;;;;;;;;5015836;28;20087;-43
2021/05/16 07:59:56;;;;;;;15.50;3.22;;;;;;;;;;5020449;28;20095;-43
2021/05/16 08:02:22;;;;;;;8.25;3.50;;;;;;;;;;5019272;28;20492;-43
2021/05/16 08:04:47;;;;;;;4.15;2.38;;;;;;;;;;5016872;28;20040;-43
2021/05/16 08:07:12;;;;;;;9.02;2.30;;;;;;;;;;5018367;28;20025;-43
2021/05/16 08:09:38;;;;;;;7.97;4.18;;;;;;;;;;5021212;28;20073;-43
2021/05/16 08:12:03;;;;;;;3.63;2.63;;;;;;;;;;5019443;28;20561;-43
2021/05/16 08:14:28;;;;;;;7.80;2.65;;;;;;;;;;5017221;28;20105;-42
2021/05/16 08:16:54;;;;;;;8.82;2.25;;;;;;;;;;5016431;28;20556;-42
2021/05/16 08:19:19;;;;;;;9.15;2.47;;;;;;;;;;5019885;28;20041;-42
2021/05/16 08:21:46;;;;;;;4.80;3.50;;;;;;;;;;5014752;28;20135;-42
2021/05/16 08:24:12;;;;;;;2.67;1.98;;;;;;;;;;5016469;28;20084;-42
2021/05/16 08:26:37;;;;;;;3.47;2.47;;;;;;;;;;5020083;28;20065;-42
2021/05/16 08:29:04;;;;;;;7.97;3.95;;;;;;;;;;5018002;28;20056;-43
2021/05/16 08:31:30;;;;;;;4.70;1.90;;;;;;;;;;5017483;28;20030;-43
2021/05/16 08:33:55;;;;;;;2.97;1.73;;;;;;;;;;5015754;28;20032;-43
2021/05/16 08:36:20;;;;;;;15.45;1.52;;;;;;;;;;5014228;28;20087;-42
2021/05/16 08:38:46;;;;;;;3.30;1.55;;;;;;;;;;5015498;28;20491;-43
2021/05/16 08:41:11;;;;;;;1.17;0.60;;;;;;;;;;5016207;28;20038;-42
2021/05/16 08:43:37;;;;;;;0.93;0.47;;;;;;;;;;5012509;28;20388;-43
2021/05/16 08:46:02;;;;;;;7.03;0.60;;;;;;;;;;5013761;28;20141;-42
2021/05/16 08:48:29;;;;;;;1.42;1.05;;;;;;;;;;5015927;28;20483;-43
2021/05/16 08:50:56;;;;;;;6.80;1.38;;;;;;;;;;5017667;28;20454;-43
2021/05/16 08:53:21;;;;;;;2.28;1.30;;;;;;;;;;5018616;28;20506;-42
2021/05/16 08:55:46;;;;;;;1.63;0.85;;;;;;;;;;5015347;28;20034;-44
2021/05/16 08:58:11;;;;;;;1.50;1.00;;;;;;;;;;5016648;28;20125;-44
2021/05/16 09:00:43;;;;;;;4.13;1.58;;;;;;;;;;5015730;28;20037;-44
2021/05/16 09:03:12;;;;;;;1.27;0.70;;;;;;;;;;5019404;28;20034;-44
2021/05/16 09:05:47;;;;;;;1.73;0.90;;;;;;;;;;5020589;28;20160;-44
2021/05/16 09:08:16;;;;;;;1.65;0.75;;;;;;;;;;5019527;28;20064;-44
2021/05/16 09:10:42;;;;;;;3.45;1.10;;;;;;;;;;5016540;28;20026;-44
2021/05/16 09:13:12;;;;;;;2.00;1.17;;;;;;;;;;5019365;28;20228;-45
2021/05/16 09:15:37;;;;;;;1.48;0.63;;;;;;;;;;5003553;28;20028;-45
2021/05/16 09:18:03;;;;;;;8.07;1.17;;;;;;;;;;5019534;28;20481;-45
2021/05/16 09:20:28;;;;;;;2.67;0.90;;;;;;;;;;5025270;28;20053;-45
2021/05/16 09:22:53;;;;;;;2.28;1.35;;;;;;;;;;5024072;28;20029;-45
2021/05/16 09:25:21;;;;;;;10.88;1.42;;;;;;;;;;5020260;28;20045;-42
2021/05/16 09:27:50;;;;;;;3.10;1.15;;;;;;;;;;5019561;28;20062;-36
2021/05/16 09:30:16;;;;;;;2.00;1.10;;;;;;;;;;5021570;28;20489;-37
2021/05/16 09:32:45;;;;;;;3.00;2.05;;;;;;;;;;5022447;28;20945;-36
2021/05/16 09:35:11;;;;;;;6.88;1.85;;;;;;;;;;5021681;28;20394;-37
2021/05/16 09:37:36;;;;;;;1.70;1.30;;;;;;;;;;5023816;28;20029;-39
2021/05/16 09:40:03;;;;;;;3.70;0.98;;;;;;;;;;5023347;28;20036;-37
2021/05/16 09:42:29;;;;;;;1.67;0.60;;;;;;;;;;5022283;28;20064;-37
2021/05/16 09:44:55;;;;;;;5.40;1.40;;;;;;;;;;5023383;28;20691;-37
2021/05/16 09:47:21;;;;;;;7.95;1.75;;;;;;;;;;5024644;28;20025;-37
2021/05/16 09:49:46;;;;;;;4.00;1.08;;;;;;;;;;5021969;28;20478;-36
2021/05/16 09:52:17;;;;;;;4.07;1.15;;;;;;;;;;5023821;28;20037;-36
2021/05/16 09:54:51;;;;;;;1.40;0.57;;;;;;;;;;5020989;28;20022;-36
2021/05/16 09:57:16;;;;;;;3.50;1.00;;;;;;;;;;5022313;28;20059;-36
2021/05/16 09:59:42;;;;;;;2.08;0.95;;;;;;;;;;5021866;28;20112;-36
2021/05/16 10:02:07;;;;;;;9.02;1.35;;;;;;;;;;5020248;28;20044;-36
2021/05/16 10:04:33;;;;;;;2.08;0.70;;;;;;;;;;5019335;28;20028;-39
2021/05/16 10:06:58;;;;;;;6.60;1.50;;;;;;;;;;5021939;28;20030;-37
2021/05/16 10:09:23;;;;;;;2.60;1.58;;;;;;;;;;5017613;28;20040;-37
2021/05/16 10:11:49;;;;;;;5.20;1.70;;;;;;;;;;5018565;28;20037;-36
2021/05/16 10:14:16;;;;;;;4.82;2.42;;;;;;;;;;5017874;28;20038;-37
2021/05/16 10:16:46;;;;;;;12.77;2.30;;;;;;;;;;5017759;28;20124;-37
2021/05/16 10:19:12;;;;;;;1.33;0.70;;;;;;;;;;5021272;28;20037;-37
2021/05/16 10:21:37;;;;;;;0.68;0.68;;;;;;;;;;5018581;28;20517;-38
2021/05/16 10:24:07;;;;;;;2.47;0.75;;;;;;;;;;5019971;28;20033;-38
2021/05/16 10:26:32;;;;;;;1.50;0.97;;;;;;;;;;5021515;28;20113;-38
2021/05/16 10:28:59;;;;;;;3.47;0.85;;;;;;;;;;5020935;28;20058;-38
2021/05/16 10:31:43;;;;;;;4.82;0.50;;;;;;;;;;5019945;28;20040;-37
2021/05/16 10:34:27;;;;;;;1.58;0.45;;;;;;;;;;5017830;28;20103;-37
2021/05/16 10:36:53;;;;;;;1.67;0.80;;;;;;;;;;5018884;28;20421;-38
2021/05/16 10:39:36;;;;;;;1.08;0.57;;;;;;;;;;5018213;28;20524;-38
2021/05/16 10:42:18;;;;;;;0.90;0.68;;;;;;;;;;5018605;28;20029;-38
2021/05/16 10:45:02;;;;;;;1.40;0.95;;;;;;;;;;5023449;28;20032;-38
2021/05/16 10:47:44;;;;;;;2.85;0.90;;;;;;;;;;5020687;28;20706;-37
2021/05/16 10:50:10;;;;;;;1.10;0.50;;;;;;;;;;5023289;28;20064;-37
2021/05/16 10:52:35;;;;;;;6.28;2.13;;;;;;;;;;5021507;28;20042;-40
2021/05/16 10:55:01;;;;;;;2.40;0.70;;;;;;;;;;5020491;28;20038;-37
2021/05/16 10:57:39;;;;;;;5.22;1.50;;;;;;;;;;5024841;28;20061;-37
2021/05/16 11:00:19;;;;;;;1.92;0.95;;;;;;;;;;5020317;28;20055;-38
2021/05/16 11:03:04;;;;;;;8.00;0.95;;;;;;;;;;5020097;28;20107;-38
2021/05/16 11:08:11;;;;;;;3.58;1.70;;;;;;;;;;5021307;28;20111;-37
2021/05/16 11:10:39;;;;;;;2.90;1.55;;;;;;;;;;5021260;28;20079;-38
2021/05/16 11:13:11;;;;;;;4.50;1.42;;;;;;;;;;5020607;28;20108;-38
2021/05/16 11:15:37;;;;;;;9.18;2.10;;;;;;;;;;5022082;28;20336;-38
2021/05/16 11:18:06;;;;;;;4.07;1.60;;;;;;;;;;5023435;28;20025;-38
2021/05/16 11:20:33;;;;;;;2.97;1.77;;;;;;;;;;5015364;28;20044;-37
2021/05/16 11:22:58;;;;;;;4.10;1.92;;;;;;;;;;5018796;28;20033;-37
2021/05/16 11:25:24;;;;;;;3.92;1.08;;;;;;;;;;5020836;28;20041;-38
2021/05/16 11:27:50;;;;;;;3.35;0.88;;;;;;;;;;5015817;28;20364;-38
2021/05/16 11:30:15;;;;;;;7.80;0.95;;;;;;;;;;5019295;28;20026;-39
2021/05/16 11:32:41;;;;;;;1.67;0.98;;;;;;;;;;5002866;28;20517;-38
2021/05/16 11:35:08;;;;;;;11.48;2.65;;;;;;;;;;5017969;28;20029;-38
2021/05/16 11:37:33;;;;;;;1.50;0.80;;;;;;;;;;5019598;28;20029;-38
2021/05/16 11:40:25;;;;;;;1.40;0.93;;;;;;;;;;5017084;28;20061;-38
2021/05/16 11:43:07;;;;;;;5.00;1.27;;;;;;;;;;5000077;28;20030;-38
2021/05/16 11:45:40;;;;;;;2.53;0.57;;;;;;;;;;5018038;28;20038;-38
2021/05/16 11:48:06;;;;;;;12.23;1.50;;;;;;;;;;5018394;28;20033;-38
2021/05/16 11:50:39;;;;;;;1.45;0.55;;;;;;;;;;5020501;28;20445;-39
2021/05/16 11:53:04;;;;;;;2.38;1.17;;;;;;;;;;5014469;28;20121;-37
2021/05/16 11:55:29;;;;;;;2.50;0.98;;;;;;;;;;5020953;28;20121;-38
2021/05/16 11:57:55;;;;;;;1.00;0.60;;;;;;;;;;5020805;28;20494;-39
2021/05/16 12:00:20;;;;;;;2.28;1.00;;;;;;;;;;5022602;28;20383;-38
2021/05/16 12:02:46;;;;;;;0.60;0.30;;;;;;;;;;5020358;28;20038;-38
2021/05/16 12:05:24;;;;;;;2.53;1.27;;;;;;;;;;5018338;28;20030;-38
2021/05/16 12:07:49;;;;;;;4.18;1.23;;;;;;;;;;5018708;28;20029;-38
2021/05/16 12:10:19;;;;;;;1.63;0.93;;;;;;;;;;5016403;28;20471;-38
2021/05/16 12:12:44;;;;;;;5.18;1.77;;;;;;;;;;5018924;28;20109;-40
2021/05/16 12:15:10;;;;;;;3.20;1.35;;;;;;;;;;5019136;28;20555;-39
2021/05/16 12:17:35;;;;;;;5.63;1.83;;;;;;;;;;5020810;28;20033;-39
2021/05/16 12:20:02;;;;;;;7.00;1.33;;;;;;;;;;5017908;28;20051;-38
2021/05/16 12:22:35;;;;;;;4.65;1.30;;;;;;;;;;5021927;28;20034;-39
2021/05/16 12:25:00;;;;;;;3.05;1.52;;;;;;;;;;5016347;28;20133;-39
2021/05/16 12:27:26;;;;;;;1.95;1.00;;;;;;;;;;5016323;28;20109;-39
2021/05/16 12:29:51;;;;;;;1.48;0.82;;;;;;;;;;5017837;28;20430;-38
2021/05/16 12:32:26;;;;;;;1.67;0.73;;;;;;;;;;5017130;28;20033;-38
2021/05/16 12:34:52;;;;;;;1.25;0.85;;;;;;;;;;5015108;28;20037;-40
2021/05/16 12:37:18;;;;;;;2.08;1.23;;;;;;;;;;5015738;28;20042;-43
2021/05/16 12:39:45;;;;;;;4.90;1.70;;;;;;;;;;5017830;28;20401;-42
2021/05/16 12:42:25;;;;;;;1.90;1.02;;;;;;;;;;5016067;28;20045;-40
2021/05/16 12:44:51;;;;;;;1.70;1.00;;;;;;;;;;5017716;28;20021;-39
2021/05/16 12:47:26;;;;;;;1.73;0.50;;;;;;;;;;5014521;28;20018;-38
2021/05/16 12:50:02;;;;;;;1.33;0.70;;;;;;;;;;5018742;28;20017;-38
2021/05/16 12:52:27;;;;;;;5.88;1.55;;;;;;;;;;5021703;28;20037;-39
2021/05/16 12:54:52;;;;;;;1.00;0.68;;;;;;;;;;5022731;28;20501;-38
2021/05/16 12:57:28;;;;;;;1.77;1.30;;;;;;;;;;5024195;28;20029;-38
2021/05/16 12:59:53;;;;;;;1.48;0.77;;;;;;;;;;5018485;28;20105;-38
2021/05/16 13:02:18;;;;;;;5.45;1.13;;;;;;;;;;5019138;28;20120;-38
2021/05/16 13:04:47;;;;;;;2.13;1.50;;;;;;;;;;5020625;28;20033;-39
2021/05/16 13:07:12;;;;;;;1.63;0.50;;;;;;;;;;5021127;28;20116;-38
2021/05/16 13:09:38;;;;;;;1.95;0.80;;;;;;;;;;5021657;28;20108;-38
2021/05/16 13:12:03;;;;;;;0.95;0.40;;;;;;;;;;5022933;28;20057;-38
2021/05/16 13:14:31;;;;;;;3.40;0.60;;;;;;;;;;5020796;28;20072;-38
2021/05/16 13:17:09;;;;;;;2.95;1.02;;;;;;;;;;5021323;28;20037;-38
2021/05/16 13:19:37;;;;;;;1.65;0.65;;;;;;;;;;5024383;28;20029;-37
2021/05/16 13:22:03;;;;;;;4.80;1.45;;;;;;;;;;5022194;28;20107;-38
2021/05/16 13:24:47;;;;;;;21.60;1.58;;;;;;;;;;5018499;28;20101;-37
2021/05/16 13:27:13;;;;;;;5.40;2.15;;;;;;;;;;5022262;28;20141;-38
2021/05/16 13:29:41;;;;;;;1.25;0.65;;;;;;;;;;5019965;28;20223;-40
2021/05/16 13:32:06;;;;;;;0.32;0.28;;;;;;;;;;5023158;28;20467;-38
2021/05/16 13:34:32;;;;;;;10.65;1.08;;;;;;;;;;5020872;28;20108;-38
2021/05/16 13:36:57;;;;;;;1.52;0.70;;;;;;;;;;5025945;28;20041;-38
2021/05/16 13:39:27;;;;;;;2.10;0.82;;;;;;;;;;5021482;28;20164;-40
2021/05/16 13:41:54;;;;;;;0.63;0.30;;;;;;;;;;5021755;28;20483;-39
2021/05/16 13:44:20;;;;;;;1.27;0.55;;;;;;;;;;5020537;28;20233;-38
2021/05/16 13:46:45;;;;;;;0.70;0.50;;;;;;;;;;5019949;28;20776;-41
2021/05/16 13:49:11;;;;;;;2.13;0.75;;;;;;;;;;5022590;28;20034;-38
2021/05/16 13:51:39;;;;;;;2.35;0.75;;;;;;;;;;5021894;28;20147;-38
2021/05/16 13:54:05;;;;;;;0.73;0.32;;;;;;;;;;5021938;28;20077;-37
2021/05/16 13:56:30;;;;;;;1.35;0.68;;;;;;;;;;5019754;28;20546;-38
2021/05/16 13:58:55;;;;;;;2.40;1.13;;;;;;;;;;5020758;28;20045;-39
2021/05/16 14:01:21;;;;;;;2.90;0.65;;;;;;;;;;5022264;28;20399;-38
2021/05/16 14:03:46;;;;;;;0.93;0.70;;;;;;;;;;5019019;28;20099;-38
2021/05/16 14:06:11;;;;;;;1.95;0.85;;;;;;;;;;5021325;28;20030;-39
2021/05/16 14:08:37;;;;;;;1.05;0.50;;;;;;;;;;5017869;28;20430;-39
2021/05/16 14:11:02;;;;;;;1.33;0.73;;;;;;;;;;5020430;28;20092;-38
2021/05/16 14:13:27;;;;;;;0.75;0.40;;;;;;;;;;5023451;28;20044;-38
2021/05/16 14:15:53;;;;;;;1.60;0.57;;;;;;;;;;5018806;28;20061;-38
2021/05/16 14:18:18;;;;;;;2.70;1.25;;;;;;;;;;5022174;28;20634;-38
2021/05/16 14:20:43;;;;;;;2.63;0.43;;;;;;;;;;5020674;28;20042;-38
2021/05/16 14:23:09;;;;;;;1.10;0.85;;;;;;;;;;5019421;28;20177;-38
2021/05/16 14:25:34;;;;;;;2.25;1.00;;;;;;;;;;5020478;28;20503;-38
2021/05/16 14:27:59;;;;;;;1.10;0.68;;;;;;;;;;5017772;28;20566;-38
2021/05/16 14:30:26;;;;;;;1.45;0.50;;;;;;;;;;5016322;28;20040;-38
2021/05/16 14:32:51;;;;;;;2.33;0.82;;;;;;;;;;5020055;28;20553;-37
2021/05/16 14:35:18;;;;;;;2.13;1.25;;;;;;;;;;5018848;28;20045;-38
2021/05/16 14:37:43;;;;;;;9.80;0.95;;;;;;;;;;5019769;28;20061;-38
2021/05/16 14:40:09;;;;;;;1.65;0.85;;;;;;;;;;5016188;28;20621;-37